sensor_id;sensor_type;location;lat;lon;timestamp;pressure;altitude;pressure_sealevel;temperature;humidity
19761;BME280;10039;42.632;23.408;2023-03-14T00:00:57;95253.25;;;5.16;53.15
19761;BME280;10039;42.632;23.408;2023-03-14T00:03:22;95257.31;;;5.03;53.15
19761;BME280;10039;42.632;23.408;2023-03-14T00:05:48;95242.50;;;4.92;53.90
19761;BME280;10039;42.632;23.408;2023-03-14T00:08:13;95242.91;;;4.90;53.60
19761;BME280;10039;42.632;23.408;2023-03-14T00:10:39;95235.53;;;4.66;53.73
19761;BME280;10039;42.632;23.408;2023-03-14T00:13:05;95224.94;;;4.66;54.21
19761;BME280;10039;42.632;23.408;2023-03-14T00:15:32;95213.72;;;4.80;54.35
19761;BME280;10039;42.632;23.408;2023-03-14T00:17:58;95211.91;;;4.94;54.59
19761;BME280;10039;42.632;23.408;2023-03-14T00:20:24;95214.22;;;4.99;54.35
19761;BME280;10039;42.632;23.408;2023-03-14T00:22:49;95190.81;;;5.01;54.38
19761;BME280;10039;42.632;23.408;2023-03-14T00:25:15;95202.63;;;5.14;54.22
19761;BME280;10039;42.632;23.408;2023-03-14T00:27:40;95183.63;;;4.95;54.02
19761;BME280;10039;42.632;23.408;2023-03-14T00:30:07;95190.81;;;5.01;54.68
19761;BME280;10039;42.632;23.408;2023-03-14T00:32:33;95186.91;;;4.78;54.09
19761;BME280;10039;42.632;23.408;2023-03-14T00:34:58;95177.25;;;4.45;55.26
19761;BME280;10039;42.632;23.408;2023-03-14T00:37:24;95161.78;;;4.47;55.39
19761;BME280;10039;42.632;23.408;2023-03-14T00:39:51;95173.28;;;4.72;55.39
19761;BME280;10039;42.632;23.408;2023-03-14T00:42:17;95161.91;;;4.65;54.74
19761;BME280;10039;42.632;23.408;2023-03-14T00:44:42;95171.31;;;4.62;55.01
19761;BME280;10039;42.632;23.408;2023-03-14T00:47:07;95162.22;;;4.56;55.35
19761;BME280;10039;42.632;23.408;2023-03-14T00:49:33;95145.59;;;4.52;54.92
19761;BME280;10039;42.632;23.408;2023-03-14T00:51:58;95163.88;;;4.78;54.92
19761;BME280;10039;42.632;23.408;2023-03-14T00:54:24;95162.59;;;4.55;54.87
19761;BME280;10039;42.632;23.408;2023-03-14T00:56:49;95164.84;;;4.53;55.24
19761;BME280;10039;42.632;23.408;2023-03-14T00:59:16;95174.00;;;4.69;55.11
19761;BME280;10039;42.632;23.408;2023-03-14T01:01:41;95167.66;;;4.77;54.84
19761;BME280;10039;42.632;23.408;2023-03-14T01:04:07;95165.78;;;4.81;54.35
19761;BME280;10039;42.632;23.408;2023-03-14T01:06:33;95157.84;;;4.81;54.59
19761;BME280;10039;42.632;23.408;2023-03-14T01:08:58;95143.47;;;4.75;54.02
19761;BME280;10039;42.632;23.408;2023-03-14T01:11:34;95158.31;;;4.94;53.93
19761;BME280;10039;42.632;23.408;2023-03-14T01:14:01;95147.34;;;4.92;54.02
19761;BME280;10039;42.632;23.408;2023-03-14T01:16:29;95145.81;;;4.87;53.32
19761;BME280;10039;42.632;23.408;2023-03-14T01:18:55;95144.63;;;4.78;53.54
19761;BME280;10039;42.632;23.408;2023-03-14T01:21:23;95151.31;;;4.61;54.58
19761;BME280;10039;42.632;23.408;2023-03-14T01:23:51;95159.59;;;4.56;54.81
19761;BME280;10039;42.632;23.408;2023-03-14T01:26:19;95145.59;;;4.52;55.00
19761;BME280;10039;42.632;23.408;2023-03-14T01:28:46;95133.19;;;4.63;55.00
19761;BME280;10039;42.632;23.408;2023-03-14T01:31:12;95134.19;;;4.41;55.08
19761;BME280;10039;42.632;23.408;2023-03-14T01:33:38;95144.09;;;4.05;56.08
19761;BME280;10039;42.632;23.408;2023-03-14T01:36:04;95130.06;;;3.94;56.49
19761;BME280;10039;42.632;23.408;2023-03-14T01:38:31;95134.50;;;3.86;57.10
19761;BME280;10039;42.632;23.408;2023-03-14T01:40:57;95133.16;;;3.63;57.43
19761;BME280;10039;42.632;23.408;2023-03-14T01:43:23;95121.16;;;3.36;57.81
19761;BME280;10039;42.632;23.408;2023-03-14T01:48:39;95129.44;;;3.31;58.20
19761;BME280;10039;42.632;23.408;2023-03-14T01:51:09;95129.47;;;3.38;57.93
19761;BME280;10039;42.632;23.408;2023-03-14T01:53:37;95117.31;;;3.63;57.85
19761;BME280;10039;42.632;23.408;2023-03-14T01:56:04;95106.88;;;3.73;57.05
19761;BME280;10039;42.632;23.408;2023-03-14T01:58:32;95104.53;;;3.65;57.07
19761;BME280;10039;42.632;23.408;2023-03-14T02:01:01;95098.31;;;3.11;57.94
19761;BME280;10039;42.632;23.408;2023-03-14T02:03:28;95116.44;;;3.16;58.26
19761;BME280;10039;42.632;23.408;2023-03-14T02:05:58;95117.50;;;3.11;58.91
19761;BME280;10039;42.632;23.408;2023-03-14T02:08:27;95089.75;;;2.88;58.67
19761;BME280;10039;42.632;23.408;2023-03-14T02:10:53;95085.06;;;2.74;59.11
19761;BME280;10039;42.632;23.408;2023-03-14T02:13:19;95096.59;;;2.92;58.02
19761;BME280;10039;42.632;23.408;2023-03-14T02:15:47;95095.69;;;2.81;57.75
19761;BME280;10039;42.632;23.408;2023-03-14T02:18:13;95117.06;;;3.02;57.94
19761;BME280;10039;42.632;23.408;2023-03-14T02:23:17;95086.00;;;2.89;57.57
19761;BME280;10039;42.632;23.408;2023-03-14T02:25:54;95107.28;;;3.06;57.20
19761;BME280;10039;42.632;23.408;2023-03-14T02:28:23;95107.63;;;3.01;57.21
19761;BME280;10039;42.632;23.408;2023-03-14T02:30:49;95097.09;;;3.01;57.66
19761;BME280;10039;42.632;23.408;2023-03-14T02:33:17;95104.25;;;3.04;57.53
19761;BME280;10039;42.632;23.408;2023-03-14T02:40:46;95100.16;;;3.07;58.20
19761;BME280;10039;42.632;23.408;2023-03-14T02:43:11;95098.31;;;3.11;57.83
19761;BME280;10039;42.632;23.408;2023-03-14T02:45:40;95084.56;;;2.95;58.17
19761;BME280;10039;42.632;23.408;2023-03-14T02:48:14;95070.16;;;2.85;58.54
19761;BME280;10039;42.632;23.408;2023-03-14T02:50:41;95097.31;;;2.89;58.49
19761;BME280;10039;42.632;23.408;2023-03-14T02:53:07;95117.31;;;2.94;58.56
19761;BME280;10039;42.632;23.408;2023-03-14T02:55:33;95115.78;;;2.93;58.95
19761;BME280;10039;42.632;23.408;2023-03-14T02:57:58;95122.06;;;3.14;58.97
19761;BME280;10039;42.632;23.408;2023-03-14T03:00:23;95118.81;;;3.24;58.64
19761;BME280;10039;42.632;23.408;2023-03-14T03:02:49;95118.22;;;3.41;58.38
19761;BME280;10039;42.632;23.408;2023-03-14T03:05:14;95132.34;;;3.59;58.09
19761;BME280;10039;42.632;23.408;2023-03-14T03:07:40;95125.28;;;3.70;57.36
19761;BME280;10039;42.632;23.408;2023-03-14T03:10:06;95119.41;;;3.47;57.60
19761;BME280;10039;42.632;23.408;2023-03-14T03:12:31;95120.41;;;3.32;58.17
19761;BME280;10039;42.632;23.408;2023-03-14T03:14:56;95115.84;;;3.29;58.25
19761;BME280;10039;42.632;23.408;2023-03-14T03:17:22;95116.06;;;3.14;58.48
19761;BME280;10039;42.632;23.408;2023-03-14T03:19:47;95123.88;;;3.07;59.22
19761;BME280;10039;42.632;23.408;2023-03-14T03:22:13;95117.56;;;3.15;59.14
19761;BME280;10039;42.632;23.408;2023-03-14T03:24:38;95115.88;;;3.00;59.56
19761;BME280;10039;42.632;23.408;2023-03-14T03:27:03;95114.88;;;3.11;59.24
19761;BME280;10039;42.632;23.408;2023-03-14T03:29:29;95117.06;;;3.06;58.91
19761;BME280;10039;42.632;23.408;2023-03-14T03:31:55;95114.13;;;3.11;58.59
19761;BME280;10039;42.632;23.408;2023-03-14T03:34:20;95114.78;;;3.04;58.82
19761;BME280;10039;42.632;23.408;2023-03-14T03:36:46;95110.88;;;2.91;59.01
19761;BME280;10039;42.632;23.408;2023-03-14T03:39:11;95099.03;;;2.78;59.55
19761;BME280;10039;42.632;23.408;2023-03-14T03:41:37;95108.25;;;2.91;59.84
19761;BME280;10039;42.632;23.408;2023-03-14T03:44:02;95122.22;;;2.95;59.90
19761;BME280;10039;42.632;23.408;2023-03-14T03:46:28;95087.88;;;2.88;59.91
19761;BME280;10039;42.632;23.408;2023-03-14T03:48:57;95108.28;;;2.95;60.08
19761;BME280;10039;42.632;23.408;2023-03-14T03:51:24;95113.31;;;3.07;60.16
19761;BME280;10039;42.632;23.408;2023-03-14T03:53:49;95123.88;;;3.07;59.93
19761;BME280;10039;42.632;23.408;2023-03-14T03:56:14;95127.59;;;3.02;60.12
19761;BME280;10039;42.632;23.408;2023-03-14T03:58:40;95129.47;;;3.05;60.24
19761;BME280;10039;42.632;23.408;2023-03-14T04:01:07;95109.78;;;2.96;60.14
19761;BME280;10039;42.632;23.408;2023-03-14T04:03:33;95133.00;;;3.16;60.54
19761;BME280;10039;42.632;23.408;2023-03-14T04:06:07;95130.13;;;2.95;60.62
19761;BME280;10039;42.632;23.408;2023-03-14T04:08:32;95101.41;;;2.57;60.99
19761;BME280;10039;42.632;23.408;2023-03-14T04:10:59;95096.75;;;2.47;61.87
19761;BME280;10039;42.632;23.408;2023-03-14T04:13:25;95117.72;;;2.40;62.10
19761;BME280;10039;42.632;23.408;2023-03-14T04:15:51;95122.78;;;2.52;62.13
19761;BME280;10039;42.632;23.408;2023-03-14T04:18:17;95109.91;;;2.47;62.24
19761;BME280;10039;42.632;23.408;2023-03-14T04:20:43;95090.19;;;2.34;62.10
19761;BME280;10039;42.632;23.408;2023-03-14T04:23:08;95100.56;;;2.50;62.04
19761;BME280;10039;42.632;23.408;2023-03-14T04:25:34;95104.34;;;2.52;62.39
19761;BME280;10039;42.632;23.408;2023-03-14T04:28:00;95114.19;;;2.55;62.23
19761;BME280;10039;42.632;23.408;2023-03-14T04:30:25;95067.63;;;2.33;62.40
19761;BME280;10039;42.632;23.408;2023-03-14T04:32:51;95095.22;;;2.46;62.01
19761;BME280;10039;42.632;23.408;2023-03-14T04:35:16;95105.28;;;2.67;62.22
19761;BME280;10039;42.632;23.408;2023-03-14T04:37:41;95059.22;;;2.24;62.03
19761;BME280;10039;42.632;23.408;2023-03-14T04:40:09;95076.50;;;2.51;62.07
19761;BME280;10039;42.632;23.408;2023-03-14T04:42:35;95086.41;;;2.61;62.40
19761;BME280;10039;42.632;23.408;2023-03-14T04:45:01;95085.31;;;2.62;61.95
19761;BME280;10039;42.632;23.408;2023-03-14T04:47:26;95044.09;;;2.18;62.35
19761;BME280;10039;42.632;23.408;2023-03-14T04:49:52;95079.34;;;2.39;62.09
19761;BME280;10039;42.632;23.408;2023-03-14T04:52:17;95071.06;;;2.37;61.99
19761;BME280;10039;42.632;23.408;2023-03-14T04:54:43;95077.34;;;2.59;62.29
19761;BME280;10039;42.632;23.408;2023-03-14T04:57:08;95057.78;;;2.60;62.02
19761;BME280;10039;42.632;23.408;2023-03-14T04:59:34;95081.41;;;2.82;61.79
19761;BME280;10039;42.632;23.408;2023-03-14T05:01:59;95029.31;;;2.39;61.51
19761;BME280;10039;42.632;23.408;2023-03-14T05:04:24;95072.22;;;2.69;62.32
19761;BME280;10039;42.632;23.408;2023-03-14T05:06:50;95028.44;;;2.28;62.58
19761;BME280;10039;42.632;23.408;2023-03-14T05:09:15;95074.31;;;2.57;62.91
19761;BME280;10039;42.632;23.408;2023-03-14T05:11:41;95068.19;;;2.49;62.76
19761;BME280;10039;42.632;23.408;2023-03-14T05:14:06;95078.34;;;2.77;62.38
19761;BME280;10039;42.632;23.408;2023-03-14T05:16:32;95088.81;;;2.73;62.67
19761;BME280;10039;42.632;23.408;2023-03-14T05:18:57;95081.25;;;2.68;62.60
19761;BME280;10039;42.632;23.408;2023-03-14T05:21:23;95078.16;;;2.63;62.67
19761;BME280;10039;42.632;23.408;2023-03-14T05:23:48;95056.72;;;2.35;63.01
19761;BME280;10039;42.632;23.408;2023-03-14T05:26:13;95079.53;;;2.53;63.23
19761;BME280;10039;42.632;23.408;2023-03-14T05:28:41;95078.28;;;2.73;63.24
19761;BME280;10039;42.632;23.408;2023-03-14T05:31:07;95080.28;;;2.83;62.28
19761;BME280;10039;42.632;23.408;2023-03-14T05:33:33;95078.19;;;2.96;62.08
19761;BME280;10039;42.632;23.408;2023-03-14T05:35:58;95064.88;;;3.18;61.21
19761;BME280;10039;42.632;23.408;2023-03-14T05:38:24;95075.19;;;3.33;60.72
19761;BME280;10039;42.632;23.408;2023-03-14T05:40:49;95068.50;;;3.43;60.29
19761;BME280;10039;42.632;23.408;2023-03-14T05:43:15;95064.91;;;3.61;59.71
19761;BME280;10039;42.632;23.408;2023-03-14T05:45:41;95075.69;;;3.86;59.06
19761;BME280;10039;42.632;23.408;2023-03-14T05:48:07;95071.06;;;3.76;58.83
19761;BME280;10039;42.632;23.408;2023-03-14T05:50:32;95068.75;;;3.71;58.62
19761;BME280;10039;42.632;23.408;2023-03-14T05:52:58;95049.41;;;3.56;58.66
19761;BME280;10039;42.632;23.408;2023-03-14T05:55:23;95069.84;;;3.63;58.34
19761;BME280;10039;42.632;23.408;2023-03-14T05:57:49;95077.13;;;3.76;58.94
19761;BME280;10039;42.632;23.408;2023-03-14T06:00:14;95077.19;;;3.87;59.22
19761;BME280;10039;42.632;23.408;2023-03-14T06:02:40;95085.59;;;4.03;58.76
19761;BME280;10039;42.632;23.408;2023-03-14T06:05:06;95052.81;;;4.04;58.82
19761;BME280;10039;42.632;23.408;2023-03-14T06:07:31;95059.44;;;4.38;57.49
19761;BME280;10039;42.632;23.408;2023-03-14T06:09:57;95073.13;;;4.57;57.45
19761;BME280;10039;42.632;23.408;2023-03-14T06:12:23;95061.09;;;4.66;56.65
19761;BME280;10039;42.632;23.408;2023-03-14T06:14:49;95064.56;;;4.77;56.76
19761;BME280;10039;42.632;23.408;2023-03-14T06:17:14;95047.97;;;4.80;56.36
19761;BME280;10039;42.632;23.408;2023-03-14T06:19:39;95066.19;;;5.03;55.46
19761;BME280;10039;42.632;23.408;2023-03-14T06:22:05;95075.69;;;5.28;55.54
19761;BME280;10039;42.632;23.408;2023-03-14T06:24:30;95066.66;;;5.36;55.58
19761;BME280;10039;42.632;23.408;2023-03-14T06:26:56;95063.59;;;5.27;54.71
19761;BME280;10039;42.632;23.408;2023-03-14T06:29:21;95051.50;;;5.19;55.26
19761;BME280;10039;42.632;23.408;2023-03-14T06:31:46;95073.03;;;5.28;55.99
19761;BME280;10039;42.632;23.408;2023-03-14T06:34:12;95075.34;;;5.40;56.30
19761;BME280;10039;42.632;23.408;2023-03-14T06:36:37;95051.19;;;5.59;56.03
19761;BME280;10039;42.632;23.408;2023-03-14T06:39:03;95069.00;;;5.79;55.08
19761;BME280;10039;42.632;23.408;2023-03-14T06:41:28;95049.31;;;5.63;53.43
19761;BME280;10039;42.632;23.408;2023-03-14T06:43:53;95069.72;;;5.76;53.90
19761;BME280;10039;42.632;23.408;2023-03-14T06:46:19;95066.38;;;5.83;54.06
19761;BME280;10039;42.632;23.408;2023-03-14T06:48:44;95045.19;;;5.90;54.34
19761;BME280;10039;42.632;23.408;2023-03-14T06:51:10;95047.84;;;6.00;52.86
19761;BME280;10039;42.632;23.408;2023-03-14T06:53:35;95011.50;;;6.01;53.86
19761;BME280;10039;42.632;23.408;2023-03-14T06:56:01;95045.47;;;6.62;52.73
19761;BME280;10039;42.632;23.408;2023-03-14T06:58:26;95056.03;;;6.79;52.05
19761;BME280;10039;42.632;23.408;2023-03-14T07:00:52;95037.88;;;6.63;53.03
19761;BME280;10039;42.632;23.408;2023-03-14T07:03:18;95041.56;;;6.94;52.27
19761;BME280;10039;42.632;23.408;2023-03-14T07:05:43;95035.13;;;6.91;52.31
19761;BME280;10039;42.632;23.408;2023-03-14T07:08:09;95041.94;;;6.92;50.66
19761;BME280;10039;42.632;23.408;2023-03-14T07:10:34;95048.34;;;7.05;50.70
19761;BME280;10039;42.632;23.408;2023-03-14T07:12:59;95034.22;;;7.26;50.44
19761;BME280;10039;42.632;23.408;2023-03-14T07:15:25;95021.53;;;7.54;50.18
19761;BME280;10039;42.632;23.408;2023-03-14T07:17:50;95006.38;;;7.51;49.19
19761;BME280;10039;42.632;23.408;2023-03-14T07:20:16;95009.19;;;7.81;49.32
19761;BME280;10039;42.632;23.408;2023-03-14T07:22:41;95015.00;;;8.13;50.09
19761;BME280;10039;42.632;23.408;2023-03-14T07:25:07;95002.81;;;8.19;48.35
19761;BME280;10039;42.632;23.408;2023-03-14T07:27:45;95002.72;;;7.85;47.08
19761;BME280;10039;42.632;23.408;2023-03-14T07:30:13;95005.88;;;8.17;48.92
19761;BME280;10039;42.632;23.408;2023-03-14T07:32:41;95016.56;;;8.51;48.33
19761;BME280;10039;42.632;23.408;2023-03-14T07:35:15;94960.28;;;8.56;48.66
19761;BME280;10039;42.632;23.408;2023-03-14T07:37:41;95010.13;;;9.11;48.99
19761;BME280;10039;42.632;23.408;2023-03-14T07:40:09;95002.84;;;9.45;47.05
19761;BME280;10039;42.632;23.408;2023-03-14T07:42:36;94984.53;;;9.47;46.61
19761;BME280;10039;42.632;23.408;2023-03-14T07:45:02;94979.97;;;9.48;47.48
19761;BME280;10039;42.632;23.408;2023-03-14T07:47:28;94989.44;;;9.75;46.63
19761;BME280;10039;42.632;23.408;2023-03-14T07:49:53;94980.06;;;9.90;46.37
19761;BME280;10039;42.632;23.408;2023-03-14T07:52:18;94982.75;;;9.90;46.30
19761;BME280;10039;42.632;23.408;2023-03-14T07:54:44;94988.34;;;9.96;45.78
19761;BME280;10039;42.632;23.408;2023-03-14T07:57:09;94985.63;;;10.02;46.05
19761;BME280;10039;42.632;23.408;2023-03-14T07:59:35;94966.13;;;10.05;45.78
19761;BME280;10039;42.632;23.408;2023-03-14T08:02:00;94952.00;;;9.86;45.33
19761;BME280;10039;42.632;23.408;2023-03-14T08:04:26;94974.94;;;10.02;45.29
19761;BME280;10039;42.632;23.408;2023-03-14T08:06:52;94961.00;;;9.92;44.36
19761;BME280;10039;42.632;23.408;2023-03-14T08:09:19;94954.66;;;9.86;44.23
19761;BME280;10039;42.632;23.408;2023-03-14T08:11:44;94980.16;;;10.09;44.81
19761;BME280;10039;42.632;23.408;2023-03-14T08:14:10;94973.94;;;9.93;44.46
19761;BME280;10039;42.632;23.408;2023-03-14T08:16:36;94980.41;;;10.18;43.57
19761;BME280;10039;42.632;23.408;2023-03-14T08:19:01;94971.16;;;10.23;42.57
19761;BME280;10039;42.632;23.408;2023-03-14T08:21:29;94977.19;;;10.27;43.21
19761;BME280;10039;42.632;23.408;2023-03-14T08:23:54;94974.06;;;10.32;43.68
19761;BME280;10039;42.632;23.408;2023-03-14T08:26:20;94976.38;;;10.30;43.31
19761;BME280;10039;42.632;23.408;2023-03-14T08:28:45;94982.38;;;10.57;44.02
19761;BME280;10039;42.632;23.408;2023-03-14T08:31:11;94971.63;;;9.95;43.31
19761;BME280;10039;42.632;23.408;2023-03-14T08:33:36;94970.03;;;10.01;44.91
19761;BME280;10039;42.632;23.408;2023-03-14T08:36:02;94956.78;;;10.17;43.78
19761;BME280;10039;42.632;23.408;2023-03-14T08:38:27;94968.19;;;10.60;42.79
19761;BME280;10039;42.632;23.408;2023-03-14T08:40:57;94959.84;;;10.97;43.70
19761;BME280;10039;42.632;23.408;2023-03-14T08:43:23;94963.84;;;11.05;41.34
19761;BME280;10039;42.632;23.408;2023-03-14T08:45:49;94936.31;;;11.08;42.78
19761;BME280;10039;42.632;23.408;2023-03-14T08:48:14;94957.63;;;11.11;39.81
19761;BME280;10039;42.632;23.408;2023-03-14T08:50:39;94951.56;;;10.72;40.13
19761;BME280;10039;42.632;23.408;2023-03-14T08:53:05;94948.69;;;10.82;42.74
19761;BME280;10039;42.632;23.408;2023-03-14T08:55:45;94915.97;;;11.13;41.14
19761;BME280;10039;42.632;23.408;2023-03-14T08:58:10;94933.31;;;11.57;41.83
19761;BME280;10039;42.632;23.408;2023-03-14T09:00:35;94923.81;;;11.56;40.97
19761;BME280;10039;42.632;23.408;2023-03-14T09:03:02;94927.50;;;11.78;41.68
19761;BME280;10039;42.632;23.408;2023-03-14T09:05:28;94883.28;;;11.73;41.10
19761;BME280;10039;42.632;23.408;2023-03-14T09:07:53;94924.06;;;12.22;41.20
19761;BME280;10039;42.632;23.408;2023-03-14T09:10:19;94878.44;;;11.84;39.02
19761;BME280;10039;42.632;23.408;2023-03-14T09:12:44;94925.47;;;11.98;38.14
19761;BME280;10039;42.632;23.408;2023-03-14T09:15:10;94864.84;;;11.47;37.93
19761;BME280;10039;42.632;23.408;2023-03-14T09:17:35;94898.59;;;11.57;39.38
19761;BME280;10039;42.632;23.408;2023-03-14T09:20:02;94897.88;;;11.53;38.90
19761;BME280;10039;42.632;23.408;2023-03-14T09:22:31;94885.88;;;11.61;38.45
19761;BME280;10039;42.632;23.408;2023-03-14T09:24:57;94885.38;;;11.66;40.35
19761;BME280;10039;42.632;23.408;2023-03-14T09:27:23;94876.28;;;11.63;40.65
19761;BME280;10039;42.632;23.408;2023-03-14T09:29:48;94873.59;;;11.63;39.68
19761;BME280;10039;42.632;23.408;2023-03-14T09:32:14;94861.34;;;11.66;41.14
19761;BME280;10039;42.632;23.408;2023-03-14T09:34:39;94835.75;;;11.49;40.05
19761;BME280;10039;42.632;23.408;2023-03-14T09:37:05;94830.75;;;11.19;40.34
19761;BME280;10039;42.632;23.408;2023-03-14T09:39:30;94839.69;;;11.44;42.01
19761;BME280;10039;42.632;23.408;2023-03-14T09:41:56;94827.66;;;11.68;42.54
19761;BME280;10039;42.632;23.408;2023-03-14T09:44:32;94832.22;;;11.84;41.57
19761;BME280;10039;42.632;23.408;2023-03-14T09:47:01;94834.16;;;11.83;42.08
19761;BME280;10039;42.632;23.408;2023-03-14T09:49:33;94821.00;;;11.60;40.78
19761;BME280;10039;42.632;23.408;2023-03-14T09:52:11;94805.94;;;11.66;41.31
19761;BME280;10039;42.632;23.408;2023-03-14T09:54:56;94799.28;;;11.58;41.46
19761;BME280;10039;42.632;23.408;2023-03-14T09:57:25;94809.44;;;11.79;41.86
19761;BME280;10039;42.632;23.408;2023-03-14T09:59:53;94783.38;;;11.67;41.74
19761;BME280;10039;42.632;23.408;2023-03-14T10:02:25;94803.09;;;11.73;41.83
19761;BME280;10039;42.632;23.408;2023-03-14T10:04:52;94801.34;;;11.67;41.89
19761;BME280;10039;42.632;23.408;2023-03-14T10:07:28;94797.59;;;11.64;42.04
19761;BME280;10039;42.632;23.408;2023-03-14T10:09:54;94794.41;;;11.69;42.66
19761;BME280;10039;42.632;23.408;2023-03-14T10:12:20;94789.22;;;11.78;42.28
19761;BME280;10039;42.632;23.408;2023-03-14T10:14:55;94782.00;;;11.91;42.61
19761;BME280;10039;42.632;23.408;2023-03-14T10:17:20;94779.31;;;11.91;41.66
19761;BME280;10039;42.632;23.408;2023-03-14T10:19:57;94770.81;;;12.09;42.39
19761;BME280;10039;42.632;23.408;2023-03-14T10:22:26;94759.47;;;12.17;42.18
19761;BME280;10039;42.632;23.408;2023-03-14T10:25:01;94754.53;;;12.16;42.25
19761;BME280;10039;42.632;23.408;2023-03-14T10:27:32;94744.94;;;12.18;40.35
19761;BME280;10039;42.632;23.408;2023-03-14T10:30:04;94739.56;;;12.18;41.30
19761;BME280;10039;42.632;23.408;2023-03-14T10:32:37;94725.66;;;12.11;41.19
19761;BME280;10039;42.632;23.408;2023-03-14T10:40:19;94712.50;;;12.04;41.41
19761;BME280;10039;42.632;23.408;2023-03-14T10:42:45;94697.09;;;12.20;40.77
19761;BME280;10039;42.632;23.408;2023-03-14T10:45:30;94702.88;;;12.31;41.21
19761;BME280;10039;42.632;23.408;2023-03-14T10:47:59;94692.59;;;12.54;42.25
19761;BME280;10039;42.632;23.408;2023-03-14T10:50:28;94680.16;;;12.73;42.13
19761;BME280;10039;42.632;23.408;2023-03-14T10:52:55;94676.72;;;12.85;39.74
19761;BME280;10039;42.632;23.408;2023-03-14T10:55:22;94677.91;;;12.84;39.90
19761;BME280;10039;42.632;23.408;2023-03-14T10:57:49;94668.38;;;12.83;40.39
19761;BME280;10039;42.632;23.408;2023-03-14T11:00:17;94637.97;;;12.64;40.25
19761;BME280;10039;42.632;23.408;2023-03-14T11:03:19;94639.44;;;12.78;40.24
19761;BME280;10039;42.632;23.408;2023-03-14T11:08:33;94631.41;;;12.90;40.71
19761;BME280;10039;42.632;23.408;2023-03-14T11:11:25;94629.16;;;12.89;39.48
19761;BME280;10039;42.632;23.408;2023-03-14T11:22:47;94595.81;;;12.90;39.40
19761;BME280;10039;42.632;23.408;2023-03-14T11:33:44;94562.75;;;13.27;39.14
19761;BME280;10039;42.632;23.408;2023-03-14T11:36:18;94533.50;;;13.11;39.03
19761;BME280;10039;42.632;23.408;2023-03-14T11:38:50;94539.59;;;13.33;39.13
19761;BME280;10039;42.632;23.408;2023-03-14T11:41:23;94540.25;;;13.45;37.78
19761;BME280;10039;42.632;23.408;2023-03-14T11:43:55;94536.56;;;13.52;38.65
19761;BME280;10039;42.632;23.408;2023-03-14T11:46:25;94538.09;;;13.62;37.97
19761;BME280;10039;42.632;23.408;2023-03-14T11:51:47;94529.41;;;13.79;36.57
19761;BME280;10039;42.632;23.408;2023-03-14T11:56:57;94502.00;;;13.84;36.16
19761;BME280;10039;42.632;23.408;2023-03-14T11:59:28;94497.25;;;13.97;37.43
19761;BME280;10039;42.632;23.408;2023-03-14T12:01:59;94512.63;;;13.97;37.85
19761;BME280;10039;42.632;23.408;2023-03-14T12:10:23;94488.38;;;14.18;35.90
19761;BME280;10039;42.632;23.408;2023-03-14T12:12:48;94477.66;;;14.27;35.84
19761;BME280;10039;42.632;23.408;2023-03-14T12:15:22;94480.06;;;14.43;35.65
19761;BME280;10039;42.632;23.408;2023-03-14T12:17:54;94470.66;;;14.48;34.67
19761;BME280;10039;42.632;23.408;2023-03-14T12:20:24;94458.59;;;14.43;36.30
19761;BME280;10039;42.632;23.408;2023-03-14T12:22:53;94459.78;;;14.42;35.21
19761;BME280;10039;42.632;23.408;2023-03-14T12:25:24;94450.69;;;14.49;35.51
19761;BME280;10039;42.632;23.408;2023-03-14T12:35:52;94439.03;;;14.69;35.01
19761;BME280;10039;42.632;23.408;2023-03-14T12:38:45;94432.75;;;14.72;34.97
19761;BME280;10039;42.632;23.408;2023-03-14T12:41:39;94431.13;;;14.75;34.23
19761;BME280;10039;42.632;23.408;2023-03-14T12:46:53;94416.94;;;14.83;34.41
19761;BME280;10039;42.632;23.408;2023-03-14T12:49:18;94411.84;;;14.85;33.17
19761;BME280;10039;42.632;23.408;2023-03-14T12:51:44;94406.31;;;14.89;33.89
19761;BME280;10039;42.632;23.408;2023-03-14T12:54:12;94412.09;;;15.05;33.46
19761;BME280;10039;42.632;23.408;2023-03-14T12:59:51;94406.28;;;14.98;33.74
19761;BME280;10039;42.632;23.408;2023-03-14T13:02:24;94385.69;;;14.95;34.08
19761;BME280;10039;42.632;23.408;2023-03-14T13:05:03;94387.19;;;14.96;33.50
19761;BME280;10039;42.632;23.408;2023-03-14T13:12:37;94365.91;;;15.16;32.47
19761;BME280;10039;42.632;23.408;2023-03-14T13:15:15;94324.78;;;15.01;33.16
19761;BME280;10039;42.632;23.408;2023-03-14T13:17:42;94355.13;;;15.34;33.00
19761;BME280;10039;42.632;23.408;2023-03-14T13:20:28;94356.91;;;15.37;32.80
19761;BME280;10039;42.632;23.408;2023-03-14T13:22:55;94356.31;;;15.33;33.35
19761;BME280;10039;42.632;23.408;2023-03-14T13:25:20;94354.50;;;15.39;32.47
19761;BME280;10039;42.632;23.408;2023-03-14T13:27:46;94351.19;;;15.44;33.09
19761;BME280;10039;42.632;23.408;2023-03-14T13:30:20;94342.06;;;15.41;33.50
19761;BME280;10039;42.632;23.408;2023-03-14T13:32:47;94336.88;;;15.38;32.84
19761;BME280;10039;42.632;23.408;2023-03-14T13:35:23;94333.56;;;15.43;33.11
19761;BME280;10039;42.632;23.408;2023-03-14T13:37:55;94319.19;;;15.46;32.80
19761;BME280;10039;42.632;23.408;2023-03-14T13:40:25;94316.91;;;15.53;33.25
19761;BME280;10039;42.632;23.408;2023-03-14T13:43:04;94311.59;;;15.68;32.20
19761;BME280;10039;42.632;23.408;2023-03-14T13:45:30;94295.16;;;15.66;32.83
19761;BME280;10039;42.632;23.408;2023-03-14T13:47:55;94287.25;;;15.62;32.58
19761;BME280;10039;42.632;23.408;2023-03-14T13:50:21;94295.44;;;15.68;32.57
19761;BME280;10039;42.632;23.408;2023-03-14T13:52:46;94290.94;;;15.73;32.76
19761;BME280;10039;42.632;23.408;2023-03-14T13:55:17;94287.91;;;15.57;32.53
19761;BME280;10039;42.632;23.408;2023-03-14T14:00:24;94281.88;;;15.62;31.65
19761;BME280;10039;42.632;23.408;2023-03-14T14:02:55;94280.50;;;15.67;32.19
19761;BME280;10039;42.632;23.408;2023-03-14T14:05:22;94263.34;;;15.78;32.29